sensor_id;sensor_type;location;lat;lon;timestamp;temperature;humidity
12655;DHT22;6392;44.644;11.448;2024-03-08T00:01:21;8.00;99.90
12655;DHT22;6392;44.644;11.448;2024-03-08T00:03:49;8.00;99.90
12655;DHT22;6392;44.644;11.448;2024-03-08T00:06:19;8.00;99.90
12655;DHT22;6392;44.644;11.448;2024-03-08T00:08:46;8.00;99.90
12655;DHT22;6392;44.644;11.448;2024-03-08T00:11:13;7.90;99.90
12655;DHT22;6392;44.644;11.448;2024-03-08T00:13:40;7.90;99.90
12655;DHT22;6392;44.644;11.448;2024-03-08T00:16:07;7.90;99.90
12655;DHT22;6392;44.644;11.448;2024-03-08T00:18:35;7.80;99.90
12655;DHT22;6392;44.644;11.448;2024-03-08T00:21:02;7.80;99.90
12655;DHT22;6392;44.644;11.448;2024-03-08T00:23:31;7.70;99.90
12655;DHT22;6392;44.644;11.448;2024-03-08T00:25:59;7.70;99.90
12655;DHT22;6392;44.644;11.448;2024-03-08T00:28:26;7.70;99.90
12655;DHT22;6392;44.644;11.448;2024-03-08T00:30:53;7.70;99.90
12655;DHT22;6392;44.644;11.448;2024-03-08T00:33:20;7.80;99.90
12655;DHT22;6392;44.644;11.448;2024-03-08T00:35:47;7.80;99.90
12655;DHT22;6392;44.644;11.448;2024-03-08T00:38:14;7.80;99.90
12655;DHT22;6392;44.644;11.448;2024-03-08T00:40:43;7.90;99.90
12655;DHT22;6392;44.644;11.448;2024-03-08T00:43:10;7.90;99.90
12655;DHT22;6392;44.644;11.448;2024-03-08T00:45:37;7.90;99.90
12655;DHT22;6392;44.644;11.448;2024-03-08T00:48:05;8.00;99.90
12655;DHT22;6392;44.644;11.448;2024-03-08T00:50:32;8.00;99.90
12655;DHT22;6392;44.644;11.448;2024-03-08T00:52:59;8.00;99.90
12655;DHT22;6392;44.644;11.448;2024-03-08T00:55:26;8.00;99.90
12655;DHT22;6392;44.644;11.448;2024-03-08T00:57:56;7.90;99.90
12655;DHT22;6392;44.644;11.448;2024-03-08T01:00:23;7.90;99.90
12655;DHT22;6392;44.644;11.448;2024-03-08T01:02:51;7.90;99.90
12655;DHT22;6392;44.644;11.448;2024-03-08T01:05:18;7.90;99.90
12655;DHT22;6392;44.644;11.448;2024-03-08T01:07:45;7.80;99.90
12655;DHT22;6392;44.644;11.448;2024-03-08T01:10:13;7.80;99.90
12655;DHT22;6392;44.644;11.448;2024-03-08T01:12:40;7.80;99.90
12655;DHT22;6392;44.644;11.448;2024-03-08T01:15:10;7.80;99.90
12655;DHT22;6392;44.644;11.448;2024-03-08T01:17:37;7.80;99.90
12655;DHT22;6392;44.644;11.448;2024-03-08T01:20:05;7.80;99.90
12655;DHT22;6392;44.644;11.448;2024-03-08T01:22:33;7.70;99.90
12655;DHT22;6392;44.644;11.448;2024-03-08T01:25:00;7.70;99.90
12655;DHT22;6392;44.644;11.448;2024-03-08T01:27:27;7.70;99.90
12655;DHT22;6392;44.644;11.448;2024-03-08T01:29:54;7.60;99.90
12655;DHT22;6392;44.644;11.448;2024-03-08T01:32:22;7.60;99.90
12655;DHT22;6392;44.644;11.448;2024-03-08T01:34:49;7.60;99.90
12655;DHT22;6392;44.644;11.448;2024-03-08T01:37:16;7.60;99.90
12655;DHT22;6392;44.644;11.448;2024-03-08T01:39:44;7.60;99.90
12655;DHT22;6392;44.644;11.448;2024-03-08T01:42:11;7.60;99.90
12655;DHT22;6392;44.644;11.448;2024-03-08T01:44:41;7.60;99.90
12655;DHT22;6392;44.644;11.448;2024-03-08T01:47:10;7.70;99.90
12655;DHT22;6392;44.644;11.448;2024-03-08T01:49:39;7.70;99.90
12655;DHT22;6392;44.644;11.448;2024-03-08T01:52:06;7.70;99.90
12655;DHT22;6392;44.644;11.448;2024-03-08T01:54:35;7.70;99.90
12655;DHT22;6392;44.644;11.448;2024-03-08T01:57:02;7.70;99.90
12655;DHT22;6392;44.644;11.448;2024-03-08T01:59:30;7.70;99.90
12655;DHT22;6392;44.644;11.448;2024-03-08T02:02:00;7.70;99.90
12655;DHT22;6392;44.644;11.448;2024-03-08T02:04:28;7.70;99.90
12655;DHT22;6392;44.644;11.448;2024-03-08T02:06:57;7.70;99.90
12655;DHT22;6392;44.644;11.448;2024-03-08T02:09:24;7.70;99.90
12655;DHT22;6392;44.644;11.448;2024-03-08T02:11:51;7.80;99.90
12655;DHT22;6392;44.644;11.448;2024-03-08T02:14:20;7.80;99.90
12655;DHT22;6392;44.644;11.448;2024-03-08T02:16:47;7.80;99.90
12655;DHT22;6392;44.644;11.448;2024-03-08T02:19:14;7.80;99.90
12655;DHT22;6392;44.644;11.448;2024-03-08T02:21:43;7.90;99.90
12655;DHT22;6392;44.644;11.448;2024-03-08T02:24:12;7.90;99.90
12655;DHT22;6392;44.644;11.448;2024-03-08T02:26:40;7.90;99.90
12655;DHT22;6392;44.644;11.448;2024-03-08T02:29:08;8.00;99.90
12655;DHT22;6392;44.644;11.448;2024-03-08T02:31:35;8.10;99.90
12655;DHT22;6392;44.644;11.448;2024-03-08T02:34:02;8.10;99.90
12655;DHT22;6392;44.644;11.448;2024-03-08T02:36:30;8.10;99.90
12655;DHT22;6392;44.644;11.448;2024-03-08T02:39:02;8.10;99.90
12655;DHT22;6392;44.644;11.448;2024-03-08T02:41:30;8.10;99.90
12655;DHT22;6392;44.644;11.448;2024-03-08T02:43:58;8.20;99.90
12655;DHT22;6392;44.644;11.448;2024-03-08T02:46:25;8.20;99.90
12655;DHT22;6392;44.644;11.448;2024-03-08T02:48:52;8.20;99.90
12655;DHT22;6392;44.644;11.448;2024-03-08T02:51:19;8.20;99.90
12655;DHT22;6392;44.644;11.448;2024-03-08T02:53:46;8.10;99.90
12655;DHT22;6392;44.644;11.448;2024-03-08T02:56:18;8.10;99.90
12655;DHT22;6392;44.644;11.448;2024-03-08T02:58:47;8.10;99.90
12655;DHT22;6392;44.644;11.448;2024-03-08T03:01:14;8.00;99.90
12655;DHT22;6392;44.644;11.448;2024-03-08T03:03:41;7.90;99.90
12655;DHT22;6392;44.644;11.448;2024-03-08T03:06:09;7.90;99.90
12655;DHT22;6392;44.644;11.448;2024-03-08T03:08:36;7.80;99.90
12655;DHT22;6392;44.644;11.448;2024-03-08T03:11:03;7.80;99.90
12655;DHT22;6392;44.644;11.448;2024-03-08T03:13:31;7.70;99.90
12655;DHT22;6392;44.644;11.448;2024-03-08T03:15:59;7.70;99.90
12655;DHT22;6392;44.644;11.448;2024-03-08T03:18:26;7.60;99.90
12655;DHT22;6392;44.644;11.448;2024-03-08T03:20:53;7.60;99.90
12655;DHT22;6392;44.644;11.448;2024-03-08T03:23:20;7.60;99.90
12655;DHT22;6392;44.644;11.448;2024-03-08T03:25:47;7.60;99.90
12655;DHT22;6392;44.644;11.448;2024-03-08T03:28:14;7.60;99.90
12655;DHT22;6392;44.644;11.448;2024-03-08T03:30:45;7.50;99.90
12655;DHT22;6392;44.644;11.448;2024-03-08T03:33:12;7.50;99.90
12655;DHT22;6392;44.644;11.448;2024-03-08T03:35:40;7.50;99.90
12655;DHT22;6392;44.644;11.448;2024-03-08T03:38:09;7.40;99.90
12655;DHT22;6392;44.644;11.448;2024-03-08T03:40:36;7.40;99.90
12655;DHT22;6392;44.644;11.448;2024-03-08T03:43:04;7.40;99.90
12655;DHT22;6392;44.644;11.448;2024-03-08T03:45:31;7.30;99.90
12655;DHT22;6392;44.644;11.448;2024-03-08T03:48:02;7.30;99.90
12655;DHT22;6392;44.644;11.448;2024-03-08T03:50:29;7.30;99.90
12655;DHT22;6392;44.644;11.448;2024-03-08T03:53:00;7.30;99.90
12655;DHT22;6392;44.644;11.448;2024-03-08T03:55:27;7.20;99.90
12655;DHT22;6392;44.644;11.448;2024-03-08T03:57:54;7.10;99.90
12655;DHT22;6392;44.644;11.448;2024-03-08T04:00:21;7.10;99.90
12655;DHT22;6392;44.644;11.448;2024-03-08T04:02:48;7.00;99.90
12655;DHT22;6392;44.644;11.448;2024-03-08T04:05:18;7.00;99.90
12655;DHT22;6392;44.644;11.448;2024-03-08T04:07:45;7.00;99.90
12655;DHT22;6392;44.644;11.448;2024-03-08T04:10:12;6.90;99.90
12655;DHT22;6392;44.644;11.448;2024-03-08T04:12:40;6.80;99.90
12655;DHT22;6392;44.644;11.448;2024-03-08T04:15:08;6.80;99.90
12655;DHT22;6392;44.644;11.448;2024-03-08T04:17:36;6.80;99.90
12655;DHT22;6392;44.644;11.448;2024-03-08T04:20:04;6.80;99.90
12655;DHT22;6392;44.644;11.448;2024-03-08T04:22:37;6.70;99.90
12655;DHT22;6392;44.644;11.448;2024-03-08T04:25:05;6.70;99.90
12655;DHT22;6392;44.644;11.448;2024-03-08T04:27:32;6.70;99.90
12655;DHT22;6392;44.644;11.448;2024-03-08T04:30:00;6.70;99.90
12655;DHT22;6392;44.644;11.448;2024-03-08T04:32:27;6.40;99.90
12655;DHT22;6392;44.644;11.448;2024-03-08T04:34:55;6.60;99.90
12655;DHT22;6392;44.644;11.448;2024-03-08T04:37:22;6.60;99.90
12655;DHT22;6392;44.644;11.448;2024-03-08T04:39:51;6.70;99.90
12655;DHT22;6392;44.644;11.448;2024-03-08T04:42:18;6.70;99.90
12655;DHT22;6392;44.644;11.448;2024-03-08T04:44:45;6.60;99.90
12655;DHT22;6392;44.644;11.448;2024-03-08T04:47:12;6.70;99.90
12655;DHT22;6392;44.644;11.448;2024-03-08T04:49:39;6.70;99.90
12655;DHT22;6392;44.644;11.448;2024-03-08T04:52:07;6.70;99.90
12655;DHT22;6392;44.644;11.448;2024-03-08T04:54:34;6.70;99.90
12655;DHT22;6392;44.644;11.448;2024-03-08T04:57:02;6.60;99.90
12655;DHT22;6392;44.644;11.448;2024-03-08T04:59:30;6.70;99.90
12655;DHT22;6392;44.644;11.448;2024-03-08T05:01:57;6.80;99.90
12655;DHT22;6392;44.644;11.448;2024-03-08T05:04:24;6.80;99.90
12655;DHT22;6392;44.644;11.448;2024-03-08T05:06:51;6.90;99.90
12655;DHT22;6392;44.644;11.448;2024-03-08T05:09:19;6.90;99.90
12655;DHT22;6392;44.644;11.448;2024-03-08T05:11:46;6.90;99.90
12655;DHT22;6392;44.644;11.448;2024-03-08T05:14:15;6.90;99.90
12655;DHT22;6392;44.644;11.448;2024-03-08T05:16:46;6.90;99.90
12655;DHT22;6392;44.644;11.448;2024-03-08T05:19:14;6.90;99.90
12655;DHT22;6392;44.644;11.448;2024-03-08T05:21:43;7.00;99.90
12655;DHT22;6392;44.644;11.448;2024-03-08T05:24:11;7.00;99.90
12655;DHT22;6392;44.644;11.448;2024-03-08T05:26:38;7.00;99.90
12655;DHT22;6392;44.644;11.448;2024-03-08T05:29:06;6.90;99.90
12655;DHT22;6392;44.644;11.448;2024-03-08T05:31:43;6.90;99.90
12655;DHT22;6392;44.644;11.448;2024-03-08T05:34:12;6.90;99.90
12655;DHT22;6392;44.644;11.448;2024-03-08T05:36:40;6.90;99.90
12655;DHT22;6392;44.644;11.448;2024-03-08T05:39:09;6.90;99.90
12655;DHT22;6392;44.644;11.448;2024-03-08T05:41:37;6.90;99.90
12655;DHT22;6392;44.644;11.448;2024-03-08T05:44:04;6.90;99.90
12655;DHT22;6392;44.644;11.448;2024-03-08T05:46:32;6.90;99.90
12655;DHT22;6392;44.644;11.448;2024-03-08T05:49:00;6.90;99.90
12655;DHT22;6392;44.644;11.448;2024-03-08T05:51:31;6.90;99.90
12655;DHT22;6392;44.644;11.448;2024-03-08T05:54:00;6.90;99.90
12655;DHT22;6392;44.644;11.448;2024-03-08T05:56:29;6.90;99.90
12655;DHT22;6392;44.644;11.448;2024-03-08T05:58:56;6.90;99.90
12655;DHT22;6392;44.644;11.448;2024-03-08T06:01:23;6.90;99.90
12655;DHT22;6392;44.644;11.448;2024-03-08T06:03:50;6.90;99.90
12655;DHT22;6392;44.644;11.448;2024-03-08T06:06:21;6.90;99.90
12655;DHT22;6392;44.644;11.448;2024-03-08T06:08:48;7.00;99.90
12655;DHT22;6392;44.644;11.448;2024-03-08T06:11:15;7.00;99.90
12655;DHT22;6392;44.644;11.448;2024-03-08T06:13:44;7.00;99.90
12655;DHT22;6392;44.644;11.448;2024-03-08T06:16:11;7.00;99.90
12655;DHT22;6392;44.644;11.448;2024-03-08T06:18:38;7.00;99.90
12655;DHT22;6392;44.644;11.448;2024-03-08T06:21:07;7.00;99.90
12655;DHT22;6392;44.644;11.448;2024-03-08T06:23:36;7.10;99.90
12655;DHT22;6392;44.644;11.448;2024-03-08T06:26:04;7.10;99.90
12655;DHT22;6392;44.644;11.448;2024-03-08T06:28:31;7.10;99.90
12655;DHT22;6392;44.644;11.448;2024-03-08T06:31:00;7.10;99.90
12655;DHT22;6392;44.644;11.448;2024-03-08T06:33:27;7.10;99.90
12655;DHT22;6392;44.644;11.448;2024-03-08T06:35:55;7.10;99.90
12655;DHT22;6392;44.644;11.448;2024-03-08T06:38:23;7.10;99.90
12655;DHT22;6392;44.644;11.448;2024-03-08T06:40:51;7.20;99.90
12655;DHT22;6392;44.644;11.448;2024-03-08T06:43:20;7.20;99.90
12655;DHT22;6392;44.644;11.448;2024-03-08T06:45:47;7.30;99.90
12655;DHT22;6392;44.644;11.448;2024-03-08T06:48:15;7.30;99.90
12655;DHT22;6392;44.644;11.448;2024-03-08T06:50:43;7.30;99.90
12655;DHT22;6392;44.644;11.448;2024-03-08T06:53:10;7.40;99.90
12655;DHT22;6392;44.644;11.448;2024-03-08T06:55:37;7.40;99.90
12655;DHT22;6392;44.644;11.448;2024-03-08T06:58:06;7.50;99.90
12655;DHT22;6392;44.644;11.448;2024-03-08T07:00:33;7.50;99.90
12655;DHT22;6392;44.644;11.448;2024-03-08T07:03:01;7.60;99.90
12655;DHT22;6392;44.644;11.448;2024-03-08T07:05:29;7.60;99.90
12655;DHT22;6392;44.644;11.448;2024-03-08T07:07:58;7.70;99.90
12655;DHT22;6392;44.644;11.448;2024-03-08T07:10:25;7.70;99.90
12655;DHT22;6392;44.644;11.448;2024-03-08T07:12:54;7.80;99.90
12655;DHT22;6392;44.644;11.448;2024-03-08T07:15:23;7.90;99.90
12655;DHT22;6392;44.644;11.448;2024-03-08T07:17:50;8.00;99.90
12655;DHT22;6392;44.644;11.448;2024-03-08T07:20:18;8.10;99.90
12655;DHT22;6392;44.644;11.448;2024-03-08T07:22:45;8.20;99.90
12655;DHT22;6392;44.644;11.448;2024-03-08T07:25:16;8.20;99.90
12655;DHT22;6392;44.644;11.448;2024-03-08T07:27:47;8.30;99.90
12655;DHT22;6392;44.644;11.448;2024-03-08T07:30:15;8.40;99.90
12655;DHT22;6392;44.644;11.448;2024-03-08T07:33:05;8.60;99.90
12655;DHT22;6392;44.644;11.448;2024-03-08T07:35:35;8.70;99.90
12655;DHT22;6392;44.644;11.448;2024-03-08T07:38:03;8.80;99.90
12655;DHT22;6392;44.644;11.448;2024-03-08T07:40:32;8.80;99.90
12655;DHT22;6392;44.644;11.448;2024-03-08T07:42:59;8.90;99.90
12655;DHT22;6392;44.644;11.448;2024-03-08T07:45:26;9.00;99.90
12655;DHT22;6392;44.644;11.448;2024-03-08T07:47:53;9.00;99.90
12655;DHT22;6392;44.644;11.448;2024-03-08T07:50:23;9.00;99.90
12655;DHT22;6392;44.644;11.448;2024-03-08T07:52:50;9.10;99.90
12655;DHT22;6392;44.644;11.448;2024-03-08T07:55:17;9.10;99.90
12655;DHT22;6392;44.644;11.448;2024-03-08T07:57:45;9.20;99.90
12655;DHT22;6392;44.644;11.448;2024-03-08T08:00:14;9.20;99.90
12655;DHT22;6392;44.644;11.448;2024-03-08T08:02:44;9.30;99.90
12655;DHT22;6392;44.644;11.448;2024-03-08T08:05:11;9.40;99.90
12655;DHT22;6392;44.644;11.448;2024-03-08T08:07:43;9.40;99.90
12655;DHT22;6392;44.644;11.448;2024-03-08T08:10:12;9.40;99.90
12655;DHT22;6392;44.644;11.448;2024-03-08T08:12:44;9.50;99.90
12655;DHT22;6392;44.644;11.448;2024-03-08T08:15:11;9.50;99.90
12655;DHT22;6392;44.644;11.448;2024-03-08T08:17:41;9.60;99.90
12655;DHT22;6392;44.644;11.448;2024-03-08T08:20:09;9.60;99.90
12655;DHT22;6392;44.644;11.448;2024-03-08T08:22:37;9.70;99.90
12655;DHT22;6392;44.644;11.448;2024-03-08T08:25:07;9.80;99.90
12655;DHT22;6392;44.644;11.448;2024-03-08T08:27:35;9.80;99.90
12655;DHT22;6392;44.644;11.448;2024-03-08T08:30:04;9.90;99.90
12655;DHT22;6392;44.644;11.448;2024-03-08T08:32:34;10.00;99.90
12655;DHT22;6392;44.644;11.448;2024-03-08T08:35:01;10.10;99.90
12655;DHT22;6392;44.644;11.448;2024-03-08T08:37:30;10.10;99.90
12655;DHT22;6392;44.644;11.448;2024-03-08T08:39:57;10.20;99.90
12655;DHT22;6392;44.644;11.448;2024-03-08T08:42:31;10.30;99.90
12655;DHT22;6392;44.644;11.448;2024-03-08T08:44:58;10.40;99.90
12655;DHT22;6392;44.644;11.448;2024-03-08T08:47:27;10.40;99.90
12655;DHT22;6392;44.644;11.448;2024-03-08T08:49:54;10.50;99.90
12655;DHT22;6392;44.644;11.448;2024-03-08T08:52:21;10.50;99.90
12655;DHT22;6392;44.644;11.448;2024-03-08T08:54:48;10.50;99.90
12655;DHT22;6392;44.644;11.448;2024-03-08T08:57:16;10.60;99.90
12655;DHT22;6392;44.644;11.448;2024-03-08T08:59:45;10.80;99.90
12655;DHT22;6392;44.644;11.448;2024-03-08T09:02:12;10.80;99.90
12655;DHT22;6392;44.644;11.448;2024-03-08T09:04:42;10.90;99.90
12655;DHT22;6392;44.644;11.448;2024-03-08T09:07:09;11.00;99.90
12655;DHT22;6392;44.644;11.448;2024-03-08T09:09:36;11.10;99.90
12655;DHT22;6392;44.644;11.448;2024-03-08T09:12:04;11.10;99.90
12655;DHT22;6392;44.644;11.448;2024-03-08T09:14:31;11.20;99.90
12655;DHT22;6392;44.644;11.448;2024-03-08T09:17:00;11.20;99.90
12655;DHT22;6392;44.644;11.448;2024-03-08T09:19:27;11.20;99.90
12655;DHT22;6392;44.644;11.448;2024-03-08T09:21:54;11.30;99.90
12655;DHT22;6392;44.644;11.448;2024-03-08T09:24:21;11.40;99.90
12655;DHT22;6392;44.644;11.448;2024-03-08T09:26:48;11.50;99.90
12655;DHT22;6392;44.644;11.448;2024-03-08T09:29:15;11.50;99.90
12655;DHT22;6392;44.644;11.448;2024-03-08T09:31:42;11.60;99.90
12655;DHT22;6392;44.644;11.448;2024-03-08T09:34:13;11.60;99.90
12655;DHT22;6392;44.644;11.448;2024-03-08T09:36:40;11.70;99.90
12655;DHT22;6392;44.644;11.448;2024-03-08T09:39:08;11.80;99.90
12655;DHT22;6392;44.644;11.448;2024-03-08T09:41:35;11.90;99.90
12655;DHT22;6392;44.644;11.448;2024-03-08T09:44:03;11.90;99.90
12655;DHT22;6392;44.644;11.448;2024-03-08T09:46:31;12.00;99.90
12655;DHT22;6392;44.644;11.448;2024-03-08T09:48:58;12.00;99.90
12655;DHT22;6392;44.644;11.448;2024-03-08T09:51:29;12.00;99.90
12655;DHT22;6392;44.644;11.448;2024-03-08T09:53:56;12.00;99.90
12655;DHT22;6392;44.644;11.448;2024-03-08T09:56:25;12.10;99.90
12655;DHT22;6392;44.644;11.448;2024-03-08T09:58:53;12.20;99.90
12655;DHT22;6392;44.644;11.448;2024-03-08T10:01:45;12.20;99.90
12655;DHT22;6392;44.644;11.448;2024-03-08T10:04:12;12.20;99.90
12655;DHT22;6392;44.644;11.448;2024-03-08T10:06:41;12.40;99.90
12655;DHT22;6392;44.644;11.448;2024-03-08T10:09:09;12.40;99.90
12655;DHT22;6392;44.644;11.448;2024-03-08T10:11:37;12.60;99.90
12655;DHT22;6392;44.644;11.448;2024-03-08T10:14:05;12.70;99.90
12655;DHT22;6392;44.644;11.448;2024-03-08T10:16:32;12.70;99.90
12655;DHT22;6392;44.644;11.448;2024-03-08T10:19:00;12.70;99.90
12655;DHT22;6392;44.644;11.448;2024-03-08T10:21:28;12.80;99.90
12655;DHT22;6392;44.644;11.448;2024-03-08T10:23:57;12.80;99.90
12655;DHT22;6392;44.644;11.448;2024-03-08T10:26:25;12.90;99.90
12655;DHT22;6392;44.644;11.448;2024-03-08T10:28:53;12.90;99.90
12655;DHT22;6392;44.644;11.448;2024-03-08T10:31:20;13.00;99.90
12655;DHT22;6392;44.644;11.448;2024-03-08T10:33:47;13.10;99.90
12655;DHT22;6392;44.644;11.448;2024-03-08T10:36:15;13.20;99.90
12655;DHT22;6392;44.644;11.448;2024-03-08T10:38:43;13.30;99.90
12655;DHT22;6392;44.644;11.448;2024-03-08T10:41:14;13.40;99.90
12655;DHT22;6392;44.644;11.448;2024-03-08T10:44:06;13.50;99.90
12655;DHT22;6392;44.644;11.448;2024-03-08T10:46:44;13.70;99.90
12655;DHT22;6392;44.644;11.448;2024-03-08T10:49:17;13.80;99.90
12655;DHT22;6392;44.644;11.448;2024-03-08T10:51:45;13.90;99.90
12655;DHT22;6392;44.644;11.448;2024-03-08T10:54:14;14.00;99.90
12655;DHT22;6392;44.644;11.448;2024-03-08T10:56:45;14.00;99.90
12655;DHT22;6392;44.644;11.448;2024-03-08T10:59:13;14.00;99.90
12655;DHT22;6392;44.644;11.448;2024-03-08T11:01:40;14.00;99.90
12655;DHT22;6392;44.644;11.448;2024-03-08T11:04:07;14.00;99.90
12655;DHT22;6392;44.644;11.448;2024-03-08T11:06:42;13.90;99.90
12655;DHT22;6392;44.644;11.448;2024-03-08T11:09:27;13.90;99.90
12655;DHT22;6392;44.644;11.448;2024-03-08T11:12:21;14.00;99.90
12655;DHT22;6392;44.644;11.448;2024-03-08T11:14:51;14.10;99.90
12655;DHT22;6392;44.644;11.448;2024-03-08T11:17:21;14.20;99.90
12655;DHT22;6392;44.644;11.448;2024-03-08T11:19:49;14.30;99.90
12655;DHT22;6392;44.644;11.448;2024-03-08T11:22:21;14.40;99.90
12655;DHT22;6392;44.644;11.448;2024-03-08T11:24:50;14.40;99.90
12655;DHT22;6392;44.644;11.448;2024-03-08T11:27:17;14.50;99.90
12655;DHT22;6392;44.644;11.448;2024-03-08T11:30:00;14.60;99.90
12655;DHT22;6392;44.644;11.448;2024-03-08T11:32:35;14.60;99.90
12655;DHT22;6392;44.644;11.448;2024-03-08T11:35:07;14.70;99.90
12655;DHT22;6392;44.644;11.448;2024-03-08T11:37:35;14.70;99.90
12655;DHT22;6392;44.644;11.448;2024-03-08T11:40:12;14.80;99.90
12655;DHT22;6392;44.644;11.448;2024-03-08T11:42:44;14.80;99.90
12655;DHT22;6392;44.644;11.448;2024-03-08T11:45:15;14.90;99.90
12655;DHT22;6392;44.644;11.448;2024-03-08T11:47:42;14.90;99.90
12655;DHT22;6392;44.644;11.448;2024-03-08T11:50:12;15.10;99.90
12655;DHT22;6392;44.644;11.448;2024-03-08T11:52:39;15.20;99.90
12655;DHT22;6392;44.644;11.448;2024-03-08T11:55:07;15.40;99.90
12655;DHT22;6392;44.644;11.448;2024-03-08T11:57:34;15.40;99.90
12655;DHT22;6392;44.644;11.448;2024-03-08T12:00:03;15.50;99.90
12655;DHT22;6392;44.644;11.448;2024-03-08T12:02:34;15.40;99.90
12655;DHT22;6392;44.644;11.448;2024-03-08T12:05:04;15.30;99.90
12655;DHT22;6392;44.644;11.448;2024-03-08T12:07:35;15.40;99.90
12655;DHT22;6392;44.644;11.448;2024-03-08T12:10:16;15.40;99.90
12655;DHT22;6392;44.644;11.448;2024-03-08T12:12:44;15.40;99.90
12655;DHT22;6392;44.644;11.448;2024-03-08T12:15:12;15.30;99.90
12655;DHT22;6392;44.644;11.448;2024-03-08T12:17:42;15.40;99.90
12655;DHT22;6392;44.644;11.448;2024-03-08T12:20:14;15.60;99.90
12655;DHT22;6392;44.644;11.448;2024-03-08T12:22:42;15.80;99.90
12655;DHT22;6392;44.644;11.448;2024-03-08T12:25:11;15.90;99.90
12655;DHT22;6392;44.644;11.448;2024-03-08T12:27:39;16.00;99.90
12655;DHT22;6392;44.644;11.448;2024-03-08T12:30:19;16.00;99.90
12655;DHT22;6392;44.644;11.448;2024-03-08T12:32:54;16.00;99.90
12655;DHT22;6392;44.644;11.448;2024-03-08T12:35:23;16.10;99.90
12655;DHT22;6392;44.644;11.448;2024-03-08T12:37:52;16.30;99.90
12655;DHT22;6392;44.644;11.448;2024-03-08T12:40:19;16.40;99.90
12655;DHT22;6392;44.644;11.448;2024-03-08T12:42:52;16.40;99.90
12655;DHT22;6392;44.644;11.448;2024-03-08T12:45:20;16.40;99.90
12655;DHT22;6392;44.644;11.448;2024-03-08T12:47:50;16.40;99.90
12655;DHT22;6392;44.644;11.448;2024-03-08T12:50:18;16.50;99.90
12655;DHT22;6392;44.644;11.448;2024-03-08T12:52:45;16.60;99.90
12655;DHT22;6392;44.644;11.448;2024-03-08T12:55:14;16.70;99.90
12655;DHT22;6392;44.644;11.448;2024-03-08T12:57:44;16.70;99.90
12655;DHT22;6392;44.644;11.448;2024-03-08T13:00:13;16.70;99.90
12655;DHT22;6392;44.644;11.448;2024-03-08T13:02:44;16.60;99.90
12655;DHT22;6392;44.644;11.448;2024-03-08T13:05:11;17.00;99.90
12655;DHT22;6392;44.644;11.448;2024-03-08T13:07:41;17.10;99.90
12655;DHT22;6392;44.644;11.448;2024-03-08T13:10:12;17.00;99.90
12655;DHT22;6392;44.644;11.448;2024-03-08T13:12:41;16.70;99.90
12655;DHT22;6392;44.644;11.448;2024-03-08T13:15:08;16.50;99.90
12655;DHT22;6392;44.644;11.448;2024-03-08T13:17:37;16.20;99.90
12655;DHT22;6392;44.644;11.448;2024-03-08T13:20:07;16.10;99.90
12655;DHT22;6392;44.644;11.448;2024-03-08T13:22:35;16.10;99.90
12655;DHT22;6392;44.644;11.448;2024-03-08T13:25:05;16.20;99.90
12655;DHT22;6392;44.644;11.448;2024-03-08T13:27:33;16.10;99.90
12655;DHT22;6392;44.644;11.448;2024-03-08T13:30:00;16.20;99.90
12655;DHT22;6392;44.644;11.448;2024-03-08T13:32:28;16.30;99.90
12655;DHT22;6392;44.644;11.448;2024-03-08T13:34:56;16.30;99.90
12655;DHT22;6392;44.644;11.448;2024-03-08T13:37:23;16.30;99.90
12655;DHT22;6392;44.644;11.448;2024-03-08T13:39:51;16.30;99.90
12655;DHT22;6392;44.644;11.448;2024-03-08T13:42:20;16.30;99.90
12655;DHT22;6392;44.644;11.448;2024-03-08T13:44:48;16.20;99.90
12655;DHT22;6392;44.644;11.448;2024-03-08T13:47:19;16.10;99.90
12655;DHT22;6392;44.644;11.448;2024-03-08T13:49:48;16.10;99.90
12655;DHT22;6392;44.644;11.448;2024-03-08T13:52:18;16.10;99.90
12655;DHT22;6392;44.644;11.448;2024-03-08T13:54:46;16.10;99.90
12655;DHT22;6392;44.644;11.448;2024-03-08T13:57:15;16.10;99.90
12655;DHT22;6392;44.644;11.448;2024-03-08T13:59:45;16.10;99.90
12655;DHT22;6392;44.644;11.448;2024-03-08T14:02:18;16.20;99.90
12655;DHT22;6392;44.644;11.448;2024-03-08T14:04:50;16.30;99.90
12655;DHT22;6392;44.644;11.448;2024-03-08T14:07:19;16.40;99.90
12655;DHT22;6392;44.644;11.448;2024-03-08T14:09:48;16.40;99.90
12655;DHT22;6392;44.644;11.448;2024-03-08T14:12:23;16.50;99.90
12655;DHT22;6392;44.644;11.448;2024-03-08T14:14:54;16.60;99.90
12655;DHT22;6392;44.644;11.448;2024-03-08T14:17:26;16.80;99.90
12655;DHT22;6392;44.644;11.448;2024-03-08T14:19:57;17.00;99.90
12655;DHT22;6392;44.644;11.448;2024-03-08T14:22:25;17.20;99.90
12655;DHT22;6392;44.644;11.448;2024-03-08T14:24:52;17.30;99.90
12655;DHT22;6392;44.644;11.448;2024-03-08T14:27:22;17.40;99.90
12655;DHT22;6392;44.644;11.448;2024-03-08T14:29:50;17.50;99.90
12655;DHT22;6392;44.644;11.448;2024-03-08T14:32:23;17.60;99.90
12655;DHT22;6392;44.644;11.448;2024-03-08T14:34:51;17.50;99.90
12655;DHT22;6392;44.644;11.448;2024-03-08T14:37:28;17.40;99.90
12655;DHT22;6392;44.644;11.448;2024-03-08T14:39:58;17.40;99.90
12655;DHT22;6392;44.644;11.448;2024-03-08T14:42:27;17.20;99.90
12655;DHT22;6392;44.644;11.448;2024-03-08T14:44:58;17.10;99.90
12655;DHT22;6392;44.644;11.448;2024-03-08T14:47:28;17.10;99.90
12655;DHT22;6392;44.644;11.448;2024-03-08T14:49:56;16.90;99.90
12655;DHT22;6392;44.644;11.448;2024-03-08T14:52:24;16.90;99.90
12655;DHT22;6392;44.644;11.448;2024-03-08T14:54:54;16.90;99.90
12655;DHT22;6392;44.644;11.448;2024-03-08T14:57:23;16.90;99.90
12655;DHT22;6392;44.644;11.448;2024-03-08T14:59:51;17.00;99.90
12655;DHT22;6392;44.644;11.448;2024-03-08T15:02:22;17.20;99.90
12655;DHT22;6392;44.644;11.448;2024-03-08T15:04:52;17.60;99.90
12655;DHT22;6392;44.644;11.448;2024-03-08T15:07:23;17.90;99.90
12655;DHT22;6392;44.644;11.448;2024-03-08T15:09:52;18.00;99.90
12655;DHT22;6392;44.644;11.448;2024-03-08T15:12:22;17.80;99.90
12655;DHT22;6392;44.644;11.448;2024-03-08T15:14:52;17.60;99.90
12655;DHT22;6392;44.644;11.448;2024-03-08T15:17:22;17.40;99.90
12655;DHT22;6392;44.644;11.448;2024-03-08T15:19:52;17.30;99.90
12655;DHT22;6392;44.644;11.448;2024-03-08T15:22:20;17.10;99.90
12655;DHT22;6392;44.644;11.448;2024-03-08T15:24:50;16.70;99.90
12655;DHT22;6392;44.644;11.448;2024-03-08T15:27:20;16.20;99.90
12655;DHT22;6392;44.644;11.448;2024-03-08T15:29:52;15.80;99.90
12655;DHT22;6392;44.644;11.448;2024-03-08T15:32:22;15.40;99.90
12655;DHT22;6392;44.644;11.448;2024-03-08T15:34:55;15.10;99.90
12655;DHT22;6392;44.644;11.448;2024-03-08T15:37:24;14.80;99.90
12655;DHT22;6392;44.644;11.448;2024-03-08T15:39:53;14.60;99.90
12655;DHT22;6392;44.644;11.448;2024-03-08T15:42:21;14.50;99.90
12655;DHT22;6392;44.644;11.448;2024-03-08T15:44:54;14.30;99.90
12655;DHT22;6392;44.644;11.448;2024-03-08T15:47:22;14.20;99.90
12655;DHT22;6392;44.644;11.448;2024-03-08T15:49:52;14.20;99.90